createdAt,value
2019-03-22T14:48:39.211Z,5.4
2019-03-22T14:50:40.664Z,5.6
2019-03-22T14:52:42.111Z,4.8
2019-03-22T14:54:43.566Z,4.5
2019-03-22T14:56:45.019Z,5.2
2019-03-22T14:58:46.473Z,5.6
2019-03-22T15:00:47.926Z,5.3
2019-03-22T15:02:49.378Z,5.2
2019-03-22T15:04:50.831Z,5.5
2019-03-22T15:06:52.187Z,7
2019-03-22T15:08:53.637Z,3.6
2019-03-22T15:10:55.017Z,3.8
2019-03-22T15:12:56.375Z,3
2019-03-22T15:14:57.822Z,3.7
2019-03-22T15:16:59.287Z,3.5
2019-03-22T15:19:15.468Z,3.2
2019-03-22T15:21:17.221Z,3
2019-03-22T15:23:18.683Z,3.1
2019-03-22T15:25:20.132Z,3
2019-03-22T15:27:21.588Z,2.9
2019-03-22T15:29:23.040Z,2.7
2019-03-22T15:31:24.494Z,2.7
2019-03-22T15:33:33.841Z,2.1
2019-03-22T15:35:36.630Z,2.6
2019-03-22T15:37:38.086Z,2.7
2019-03-22T15:39:39.557Z,2.8
2019-03-22T15:41:41.002Z,2.4
2019-03-22T15:43:42.452Z,2.6
2019-03-22T15:45:43.883Z,2.5
2019-03-22T15:47:45.346Z,3.7
2019-03-22T15:49:46.791Z,4.4
2019-03-22T15:51:48.863Z,3.3
2019-03-22T15:53:50.401Z,5
2019-03-22T15:55:51.855Z,4.5
2019-03-22T15:57:53.311Z,2.4
2019-03-22T15:59:54.665Z,2.8
2019-03-22T16:01:56.023Z,4.2
2019-03-22T16:03:57.484Z,4.1
2019-03-22T16:05:58.931Z,2.2
2019-03-22T16:08:00.322Z,3.8
2019-03-22T16:10:01.691Z,3.2
2019-03-22T16:12:03.141Z,2.1
2019-03-22T16:14:04.500Z,1.6
2019-03-22T16:16:06.058Z,2.4
2019-03-22T16:18:07.515Z,2.3
2019-03-22T16:20:08.871Z,3.1
2019-03-22T16:22:10.328Z,3.5
2019-03-22T16:24:11.682Z,2.8
2019-03-22T16:26:13.040Z,4
2019-03-22T16:28:14.326Z,1.8
2019-03-22T16:30:15.789Z,2.5
2019-03-22T16:32:17.273Z,5.1
2019-03-22T16:34:18.706Z,4
2019-03-22T16:36:20.146Z,4.5
2019-03-22T16:38:21.463Z,2.4
2019-03-22T16:40:24.256Z,4.4
2019-03-22T16:42:26.072Z,2.7
2019-03-22T16:44:27.428Z,7
2019-03-22T16:46:28.785Z,3.1
2019-03-22T16:48:30.240Z,2.3
2019-03-22T16:50:31.695Z,2.6
2019-03-22T16:52:33.169Z,2.8
2019-03-22T16:54:34.565Z,6
2019-03-22T16:56:35.923Z,3.1
2019-03-22T16:58:37.287Z,4.1
2019-03-22T17:00:38.742Z,4.1
2019-03-22T17:02:40.093Z,6.6
2019-03-22T17:04:41.548Z,8.8
2019-03-22T17:06:42.999Z,10.4
2019-03-22T17:08:44.356Z,5.1
2019-03-22T17:10:45.802Z,7.3
2019-03-22T17:12:47.154Z,7.7
2019-03-22T17:14:48.506Z,6.4
2019-03-22T17:16:49.970Z,7.2
2019-03-22T17:18:51.409Z,9.7
2019-03-22T17:20:52.866Z,7.2
2019-03-22T17:22:54.271Z,5.5
2019-03-22T17:24:55.717Z,4.2
2019-03-22T17:26:57.064Z,6.3
2019-03-22T17:28:58.424Z,8.2
2019-03-22T17:30:59.868Z,4.5
2019-03-22T17:33:01.316Z,4.9
2019-03-22T17:35:02.766Z,6.2
2019-03-22T17:37:04.214Z,5.1
2019-03-22T17:39:05.657Z,4.6
2019-03-22T17:41:06.985Z,9
2019-03-22T17:43:08.332Z,7.3
2019-03-22T17:45:09.586Z,3.9
2019-03-22T17:47:10.936Z,7.1
2019-03-22T17:49:12.291Z,4.9
2019-03-22T17:51:13.739Z,4.7
2019-03-22T17:53:15.088Z,3.9
2019-03-22T17:55:16.532Z,7.8
2019-03-22T17:57:18.727Z,13.8
2019-03-22T17:59:20.529Z,18
2019-03-22T18:01:21.870Z,21.7
2019-03-22T18:03:23.214Z,18.6
2019-03-22T18:05:24.561Z,27
2019-03-22T18:07:26.002Z,26.3
2019-03-22T18:09:27.355Z,19.2
2019-03-22T18:11:28.796Z,15.2
2019-03-22T18:13:30.139Z,14.8
2019-03-22T18:15:31.488Z,11
2019-03-22T18:17:32.934Z,9.4
2019-03-22T18:19:34.397Z,16.9
2019-03-22T18:21:35.812Z,14.3
2019-03-22T18:23:37.260Z,16.3
2019-03-22T18:25:38.717Z,10.4
2019-03-22T18:27:40.145Z,13
2019-03-22T18:29:41.600Z,7.4
2019-03-22T18:31:42.983Z,10.8
2019-03-22T18:33:44.429Z,6.2
2019-03-22T18:35:45.862Z,4.9
2019-03-22T18:37:47.205Z,4.7
2019-03-22T18:39:48.641Z,5.5
2019-03-22T18:41:49.990Z,5.1
2019-03-22T18:43:51.425Z,5.1
2019-03-22T18:45:52.764Z,5
2019-03-22T18:47:54.099Z,4.8
2019-03-22T18:49:55.443Z,4.2
2019-03-22T18:51:56.889Z,5.2
2019-03-22T18:53:58.250Z,5.2
2019-03-22T18:55:59.588Z,4.4
2019-03-22T18:58:00.953Z,4.7
2019-03-22T19:00:02.255Z,3.9
2019-03-22T19:02:03.684Z,5.9
2019-03-22T19:04:05.030Z,4.4
2019-03-22T19:06:06.370Z,6.8
2019-03-22T19:08:07.630Z,6.1
2019-03-22T19:10:08.969Z,6.3
2019-03-22T19:12:10.406Z,6
2019-03-22T19:14:11.845Z,4.1
2019-03-22T19:16:13.277Z,4.7
2019-03-22T19:18:14.620Z,4.1
2019-03-22T19:20:15.952Z,3.6
2019-03-22T19:22:17.383Z,4.5
2019-03-22T19:24:18.725Z,3.6
2019-03-22T19:26:20.161Z,5.7
2019-03-22T19:28:21.489Z,5.6
2019-03-22T19:30:22.926Z,5
2019-03-22T19:32:24.279Z,5.7
2019-03-22T19:34:25.621Z,5.4
2019-03-22T19:36:26.983Z,9.1
2019-03-22T19:38:28.420Z,6.2
2019-03-22T19:40:30.150Z,3.6
2019-03-22T19:42:31.992Z,4.6
2019-03-22T19:44:33.329Z,4.7
2019-03-22T19:46:34.668Z,6.2
2019-03-22T19:48:36.104Z,3.8
2019-03-22T19:50:37.540Z,6.5
2019-03-22T19:52:38.879Z,4.7
2019-03-22T19:54:40.185Z,5.9
2019-03-22T19:56:41.613Z,3.9
2019-03-22T19:58:42.957Z,4.4
2019-03-22T20:00:44.292Z,3.5
2019-03-22T20:02:45.648Z,3.7
2019-03-22T20:04:47.079Z,4.1
2019-03-22T20:06:48.507Z,5
2019-03-22T20:08:49.843Z,4.6
2019-03-22T20:10:51.290Z,3.9
2019-03-22T20:12:52.724Z,2.9
2019-03-22T20:14:54.171Z,4
2019-03-22T20:16:55.599Z,4.8
2019-03-22T20:18:57.030Z,3.8
2019-03-22T20:20:58.467Z,3.9
2019-03-22T20:22:59.925Z,5
2019-03-22T20:25:01.253Z,4.7
2019-03-22T20:27:02.704Z,4.6
2019-03-22T20:29:04.139Z,4
2019-03-22T20:31:05.495Z,4.1
2019-03-22T20:33:06.940Z,5.1
2019-03-22T20:35:16.028Z,3.9
2019-03-22T20:37:18.538Z,6
2019-03-22T20:39:19.971Z,3.1
2019-03-22T20:41:21.309Z,4.3
2019-03-22T20:43:22.745Z,7.5
2019-03-22T20:45:24.591Z,4.1
2019-03-22T20:47:26.062Z,4.4
2019-03-22T20:49:27.315Z,5.5
2019-03-22T20:51:28.563Z,5.4
2019-03-22T20:53:29.812Z,6.9
2019-03-22T20:55:31.185Z,4.2
2019-03-22T20:57:32.516Z,5
2019-03-22T20:59:33.812Z,4.6
2019-03-22T21:01:35.251Z,4.3
2019-03-22T21:03:36.684Z,7.3
2019-03-22T21:05:38.066Z,4.7
2019-03-22T21:07:39.503Z,5.6
2019-03-22T21:09:40.936Z,6.5
2019-03-22T21:11:42.314Z,5.3
2019-03-22T21:13:43.571Z,5.2
2019-03-22T21:15:45.005Z,4.9
2019-03-22T21:17:46.422Z,4.5
2019-03-22T21:19:47.759Z,6.5
2019-03-22T21:21:49.193Z,9.2
2019-03-22T21:23:50.523Z,6.5
2019-03-22T21:25:51.817Z,5.1
2019-03-22T21:27:53.177Z,5.9
2019-03-22T21:29:54.566Z,5.3
2019-03-22T21:31:56.002Z,5.4
2019-03-22T21:33:57.332Z,6.3
2019-03-22T21:35:58.754Z,5.2
2019-03-22T21:38:10.061Z,4.8
2019-03-22T21:40:12.738Z,4.8
2019-03-22T21:42:14.171Z,5.8
2019-03-22T21:44:15.568Z,4.8
2019-03-22T21:46:16.822Z,6.4
2019-03-22T21:48:18.243Z,9.3
2019-03-22T21:50:19.558Z,6.3
2019-03-22T21:52:20.908Z,7
2019-03-22T21:54:22.281Z,4
2019-03-22T21:56:23.617Z,4.6
2019-03-22T21:58:25.000Z,6.4
2019-03-22T22:00:26.293Z,5.3
2019-03-22T22:02:31.236Z,5.2
2019-03-22T22:04:32.669Z,5.1
2019-03-22T22:06:34.143Z,4.5
2019-03-22T22:08:35.529Z,6.1
2019-03-22T22:10:36.962Z,5.1
2019-03-22T22:12:38.617Z,5.7
2019-03-22T22:14:40.610Z,5.8
2019-03-22T22:16:42.724Z,6.7
2019-03-22T22:18:44.101Z,5.2
2019-03-22T22:20:45.438Z,6.2
2019-03-22T22:22:46.778Z,7.4
2019-03-22T22:24:48.210Z,6.9
2019-03-22T22:26:49.670Z,6.6
2019-03-22T22:28:51.178Z,5.2
2019-03-22T22:30:52.523Z,4.7
2019-03-22T22:32:53.964Z,6
2019-03-22T22:34:55.385Z,4.8
2019-03-22T22:36:56.719Z,4.8
2019-03-22T22:38:58.114Z,5.1
2019-03-22T22:40:59.548Z,6.7
2019-03-22T22:43:00.983Z,5.4
2019-03-22T22:45:02.411Z,6.8
2019-03-22T22:47:03.746Z,9.1
2019-03-22T22:49:05.180Z,4.7
2019-03-22T22:51:06.614Z,5.7
2019-03-22T22:53:08.053Z,7.5
2019-03-22T22:55:09.484Z,5.5
2019-03-22T22:57:10.917Z,6.3
2019-03-22T22:59:12.351Z,5.3
2019-03-22T23:01:13.783Z,4.9
2019-03-22T23:03:15.190Z,6.2
2019-03-22T23:05:16.632Z,6.2
2019-03-22T23:07:18.052Z,7.4
2019-03-22T23:09:19.388Z,4.8
2019-03-22T23:11:20.816Z,6.2
2019-03-22T23:13:22.167Z,5.1
2019-03-22T23:15:23.443Z,6.9
2019-03-22T23:17:24.880Z,7.5
2019-03-22T23:19:26.234Z,6.4
2019-03-22T23:21:27.649Z,5.9
2019-03-22T23:23:29.082Z,6.1
2019-03-22T23:25:30.512Z,7
2019-03-22T23:27:31.921Z,7.3
2019-03-22T23:29:33.206Z,7.4
2019-03-22T23:31:34.575Z,5.3
2019-03-22T23:33:36.008Z,5.6
2019-03-22T23:35:37.337Z,9.7
2019-03-22T23:37:38.674Z,6.9
2019-03-22T23:39:40.049Z,5.9
2019-03-22T23:41:41.289Z,6.4
2019-03-22T23:43:42.629Z,8
2019-03-22T23:45:44.053Z,8.9
2019-03-22T23:47:45.489Z,7.6
2019-03-22T23:49:46.919Z,7.2
2019-03-22T23:51:48.183Z,7.4
2019-03-22T23:53:49.508Z,7
2019-03-22T23:55:50.841Z,7.4
2019-03-22T23:57:52.087Z,6.7
2019-03-22T23:59:53.367Z,8
